Time;durP1;ratioP1;P1;durP2;ratioP2;P2;SDS_P1;SDS_P2;PMS_P1;PMS_P2;Temp;Humidity;BMP_temperature;BMP_pressure;BME280_temperature;BME280_humidity;BME280_pressure;Samples;Min_cycle;Max_cycle;Signal;HPM_P1;HPM_P2
2021/12/22 00:02:13;;;;;;;;;;;24.80;99.90;;;;;;5054294;28;20355;-74
2021/12/22 00:04:44;;;;;;;;;;;24.80;99.90;;;;;;5054186;28;19962;-73
2021/12/22 00:07:14;;;;;;;;;;;24.90;99.90;;;;;;5054402;28;19916;-73
2021/12/22 00:09:42;;;;;;;;;;;25.00;99.90;;;;;;5053987;28;19925;-74
2021/12/22 00:12:09;;;;;;;;;;;25.10;99.90;;;;;;5054191;28;19953;-74
2021/12/22 00:14:36;;;;;;;;;;;25.10;99.90;;;;;;5054176;28;20016;-73
2021/12/22 00:17:03;;;;;;;;;;;25.10;99.90;;;;;;5054235;28;20418;-74
2021/12/22 00:19:30;;;;;;;;;;;25.20;99.90;;;;;;5054314;28;20410;-73
2021/12/22 00:21:57;;;;;;;;;;;25.30;99.90;;;;;;5053991;28;19909;-73
2021/12/22 00:24:23;;;;;;;;;;;25.50;99.90;;;;;;5054313;28;19909;-73
2021/12/22 00:26:50;;;;;;;;;;;25.50;99.90;;;;;;5086743;28;19916;-73
2021/12/22 00:29:17;;;;;;;;;;;25.60;99.90;;;;;;5054025;28;19917;-74
2021/12/22 00:31:57;;;;;;;;;;;25.80;99.90;;;;;;5053818;28;19931;-73
2021/12/22 00:34:26;;;;;;;;;;;25.70;99.90;;;;;;5054138;28;19909;-74
2021/12/22 00:36:53;;;;;;;;;;;25.70;99.90;;;;;;5054159;28;19909;-74
2021/12/22 00:39:19;;;;;;;;;;;25.70;99.90;;;;;;5053941;28;19908;-74
2021/12/22 00:41:49;;;;;;;;;;;25.80;99.90;;;;;;5053488;28;19909;-73
2021/12/22 00:44:16;;;;;;;;;;;25.90;99.90;;;;;;5053683;28;19909;-73
2021/12/22 00:46:42;;;;;;;;;;;25.90;99.90;;;;;;5053694;28;20291;-73
2021/12/22 00:49:09;;;;;;;;;;;25.70;99.90;;;;;;5053522;28;19917;-74
2021/12/22 00:51:36;;;;;;;;;;;25.60;99.90;;;;;;5053608;28;19913;-74
2021/12/22 00:54:02;;;;;;;;;;;25.60;99.90;;;;;;5053299;28;19909;-74
2021/12/22 00:56:29;;;;;;;;;;;25.60;99.90;;;;;;5053530;28;19916;-74
2021/12/22 00:58:56;;;;;;;;;;;25.60;99.90;;;;;;5053617;28;20015;-73
2021/12/22 01:01:22;;;;;;;;;;;25.50;99.90;;;;;;5053240;28;20314;-74
2021/12/22 01:03:49;;;;;;;;;;;25.50;99.90;;;;;;5052946;28;19908;-74
2021/12/22 01:06:16;;;;;;;;;;;25.60;99.90;;;;;;5053207;28;19909;-72
2021/12/22 01:08:42;;;;;;;;;;;26.00;99.90;;;;;;5052910;28;19962;-73
2021/12/22 01:11:09;;;;;;;;;;;26.30;99.90;;;;;;5053267;28;19908;-73
2021/12/22 01:13:36;;;;;;;;;;;26.70;99.90;;;;;;5053148;28;19916;-73
2021/12/22 01:16:02;;;;;;;;;;;27.40;99.90;;;;;;5053118;28;19913;-73
2021/12/22 01:18:32;;;;;;;;;;;27.40;99.90;;;;;;5053030;28;20352;-74
2021/12/22 01:21:09;;;;;;;;;;;27.60;99.90;;;;;;5052977;28;20302;-74
2021/12/22 01:23:50;;;;;;;;;;;27.60;99.90;;;;;;5053117;28;19961;-73
2021/12/22 01:26:17;;;;;;;;;;;27.70;99.90;;;;;;5053103;28;19909;-73
2021/12/22 01:28:43;;;;;;;;;;;27.80;99.90;;;;;;5052781;28;19909;-73
2021/12/22 01:31:15;;;;;;;;;;;27.80;99.90;;;;;;5052705;28;19909;-74
2021/12/22 01:33:42;;;;;;;;;;;27.50;99.90;;;;;;5052950;28;19981;-74
2021/12/22 01:36:09;;;;;;;;;;;27.20;99.90;;;;;;5052579;28;20426;-73
2021/12/22 01:38:35;;;;;;;;;;;27.40;99.90;;;;;;5052913;28;20256;-74
2021/12/22 01:41:03;;;;;;;;;;;27.60;99.90;;;;;;5052578;28;19908;-75
2021/12/22 01:43:29;;;;;;;;;;;27.70;99.90;;;;;;5052503;28;20279;-75
2021/12/22 01:51:31;;;;;;;;;;;27.70;99.90;;;;;;5052490;28;19928;-72
2021/12/22 01:54:00;;;;;;;;;;;27.50;99.90;;;;;;5052125;28;19947;-75
2021/12/22 01:56:29;;;;;;;;;;;27.40;99.90;;;;;;5052248;28;20351;-74
2021/12/22 01:58:57;;;;;;;;;;;27.10;99.90;;;;;;5052393;28;19916;-74
2021/12/22 02:01:25;;;;;;;;;;;26.80;99.90;;;;;;5052229;28;19913;-74
2021/12/22 02:03:52;;;;;;;;;;;26.60;99.90;;;;;;5052071;28;20289;-74
2021/12/22 02:06:19;;;;;;;;;;;26.40;99.90;;;;;;5052229;28;19913;-72
2021/12/22 02:08:46;;;;;;;;;;;26.40;99.90;;;;;;5052043;28;19916;-74
2021/12/22 02:11:14;;;;;;;;;;;26.50;99.90;;;;;;5052561;28;20364;-74
2021/12/22 02:13:45;;;;;;;;;;;26.60;99.90;;;;;;5052373;28;19909;-73
2021/12/22 02:16:14;;;;;;;;;;;26.40;99.90;;;;;;5050789;28;19948;-75
2021/12/22 02:18:47;;;;;;;;;;;26.30;99.90;;;;;;5052315;28;19916;-72
2021/12/22 02:21:14;;;;;;;;;;;26.30;99.90;;;;;;5052381;28;19916;-76
2021/12/22 02:23:41;;;;;;;;;;;26.30;99.90;;;;;;5052285;28;19913;-72
2021/12/22 02:26:14;;;;;;;;;;;26.30;99.90;;;;;;5052148;28;19975;-74
2021/12/22 02:28:45;;;;;;;;;;;26.30;99.90;;;;;;5052222;28;19909;-74
2021/12/22 02:31:16;;;;;;;;;;;26.30;99.90;;;;;;5051932;28;19924;-73
2021/12/22 02:33:46;;;;;;;;;;;26.30;99.90;;;;;;5052033;28;19966;-74
2021/12/22 02:38:53;;;;;;;;;;;26.40;99.90;;;;;;5052208;28;20088;-74
2021/12/22 02:41:21;;;;;;;;;;;26.40;99.90;;;;;;5051858;28;19909;-72
2021/12/22 02:43:51;;;;;;;;;;;26.40;99.90;;;;;;5051733;28;20253;-73
2021/12/22 02:46:24;;;;;;;;;;;26.40;99.90;;;;;;5052033;28;19966;-74
2021/12/22 02:48:53;;;;;;;;;;;26.30;99.90;;;;;;5051973;28;19913;-73
2021/12/22 02:51:20;;;;;;;;;;;26.40;99.90;;;;;;5051909;28;19958;-74
2021/12/22 02:54:05;;;;;;;;;;;26.30;99.90;;;;;;5051990;28;20421;-71
2021/12/22 02:56:39;;;;;;;;;;;26.10;99.90;;;;;;5052879;28;19954;-74
2021/12/22 02:59:36;;;;;;;;;;;25.90;99.90;;;;;;5055734;28;19924;-74
2021/12/22 03:04:44;;;;;;;;;;;26.00;99.90;;;;;;5055712;28;19916;-73
2021/12/22 03:07:14;;;;;;;;;;;26.10;99.90;;;;;;5055358;28;19944;-72
2021/12/22 03:09:41;;;;;;;;;;;26.00;99.90;;;;;;5055285;28;20389;-73
2021/12/22 03:12:11;;;;;;;;;;;26.00;99.90;;;;;;5055293;28;19940;-73
2021/12/22 03:14:37;;;;;;;;;;;26.00;99.90;;;;;;5055503;28;19931;-73
2021/12/22 03:17:04;;;;;;;;;;;26.00;99.90;;;;;;5054973;28;20282;-73
2021/12/22 03:19:34;;;;;;;;;;;26.10;99.90;;;;;;5055190;28;19908;-73
2021/12/22 03:22:04;;;;;;;;;;;26.00;99.90;;;;;;5055342;28;20378;-73
2021/12/22 03:24:32;;;;;;;;;;;26.00;99.90;;;;;;5054967;28;19912;-72
2021/12/22 03:27:02;;;;;;;;;;;26.10;99.90;;;;;;5055057;28;19915;-73
2021/12/22 03:29:29;;;;;;;;;;;26.10;99.90;;;;;;5054976;28;19913;-73
2021/12/22 03:31:56;;;;;;;;;;;26.30;99.90;;;;;;5055194;28;19913;-73
2021/12/22 03:34:23;;;;;;;;;;;26.30;99.90;;;;;;5055017;28;19909;-72
2021/12/22 03:36:50;;;;;;;;;;;26.50;99.90;;;;;;5054886;28;20365;-73
2021/12/22 03:39:17;;;;;;;;;;;26.40;99.90;;;;;;5054978;28;19909;-73
2021/12/22 03:41:44;;;;;;;;;;;26.30;99.90;;;;;;5054759;28;19909;-73
2021/12/22 03:44:11;;;;;;;;;;;26.30;99.90;;;;;;5054912;28;19949;-73
2021/12/22 03:46:38;;;;;;;;;;;26.30;99.90;;;;;;5054667;28;19948;-72
2021/12/22 03:49:06;;;;;;;;;;;26.20;99.90;;;;;;5054730;28;19992;-73
2021/12/22 03:51:33;;;;;;;;;;;26.20;99.90;;;;;;5054728;28;20311;-73
2021/12/22 03:54:00;;;;;;;;;;;26.20;99.90;;;;;;5054531;28;20325;-71
2021/12/22 03:56:26;;;;;;;;;;;26.30;99.90;;;;;;5054488;28;19909;-73
2021/12/22 03:58:54;;;;;;;;;;;26.30;99.90;;;;;;5054617;28;19991;-73
2021/12/22 04:01:21;;;;;;;;;;;26.40;99.90;;;;;;5054287;28;19908;-72
2021/12/22 04:03:51;;;;;;;;;;;26.30;99.90;;;;;;5054223;28;20007;-73
2021/12/22 04:06:18;;;;;;;;;;;26.30;99.90;;;;;;5054413;28;19913;-72
2021/12/22 04:08:44;;;;;;;;;;;26.20;99.90;;;;;;5053591;28;20435;-73
2021/12/22 04:11:11;;;;;;;;;;;26.30;99.90;;;;;;5054208;28;20255;-73
2021/12/22 04:13:38;;;;;;;;;;;26.20;99.90;;;;;;5054219;28;19913;-72
2021/12/22 04:16:04;;;;;;;;;;;26.20;99.90;;;;;;5054127;28;19908;-73
2021/12/22 04:18:31;;;;;;;;;;;26.00;99.90;;;;;;5054347;28;19913;-72
2021/12/22 04:20:58;;;;;;;;;;;26.00;99.90;;;;;;5054039;28;19909;-73
2021/12/22 04:23:25;;;;;;;;;;;26.10;99.90;;;;;;5054185;28;19908;-72
2021/12/22 04:25:51;;;;;;;;;;;26.00;99.90;;;;;;5053956;28;19940;-74
2021/12/22 04:28:18;;;;;;;;;;;25.90;99.90;;;;;;5054123;28;19912;-73
2021/12/22 04:30:48;;;;;;;;;;;26.10;99.90;;;;;;5053797;28;20393;-73
2021/12/22 04:33:15;;;;;;;;;;;25.90;99.90;;;;;;5054043;28;20372;-74
2021/12/22 04:35:42;;;;;;;;;;;25.90;99.90;;;;;;5053877;28;19948;-73
2021/12/22 04:38:08;;;;;;;;;;;26.00;99.90;;;;;;5053704;28;19909;-74
2021/12/22 04:40:35;;;;;;;;;;;25.90;99.90;;;;;;5053781;28;19909;-74
2021/12/22 04:43:02;;;;;;;;;;;25.80;99.90;;;;;;5053545;28;19938;-73
2021/12/22 04:45:29;;;;;;;;;;;25.80;99.90;;;;;;5053256;28;19908;-73
2021/12/22 04:47:57;;;;;;;;;;;25.80;99.90;;;;;;5053487;28;20450;-72
2021/12/22 04:50:27;;;;;;;;;;;25.70;99.90;;;;;;5053531;28;20386;-74
2021/12/22 04:55:47;;;;;;;;;;;25.90;99.90;;;;;;5051080;28;20256;-74
2021/12/22 04:58:14;;;;;;;;;;;25.70;99.90;;;;;;5053463;28;19909;-74
2021/12/22 05:00:41;;;;;;;;;;;25.70;99.90;;;;;;5053387;28;19936;-74
2021/12/22 05:03:07;;;;;;;;;;;25.70;99.90;;;;;;5053516;28;19928;-74
2021/12/22 05:05:34;;;;;;;;;;;25.70;99.90;;;;;;5053390;28;19917;-72
2021/12/22 05:08:01;;;;;;;;;;;25.80;99.90;;;;;;5053065;28;19992;-73
2021/12/22 05:10:28;;;;;;;;;;;25.70;99.90;;;;;;5053191;28;19921;-74
2021/12/22 05:12:55;;;;;;;;;;;25.60;99.90;;;;;;5053356;28;20000;-73
2021/12/22 05:15:23;;;;;;;;;;;25.60;99.90;;;;;;5053021;28;19913;-74
2021/12/22 05:20:21;;;;;;;;;;;25.40;99.90;;;;;;5052278;28;19916;-74
2021/12/22 05:22:48;;;;;;;;;;;25.40;99.90;;;;;;5053104;28;19943;-74
2021/12/22 05:25:14;;;;;;;;;;;25.20;99.90;;;;;;5053212;28;19909;-74
2021/12/22 05:27:41;;;;;;;;;;;25.10;99.90;;;;;;5053007;28;20450;-72
2021/12/22 05:30:09;;;;;;;;;;;25.00;99.90;;;;;;5052658;28;19968;-74
2021/12/22 05:32:36;;;;;;;;;;;25.00;99.90;;;;;;5052912;28;19909;-74
2021/12/22 05:35:04;;;;;;;;;;;25.00;99.90;;;;;;5052824;28;20007;-73
2021/12/22 05:37:31;;;;;;;;;;;25.00;99.90;;;;;;5052758;28;20353;-73
2021/12/22 05:39:58;;;;;;;;;;;25.10;99.90;;;;;;5052642;28;19908;-75
2021/12/22 05:42:25;;;;;;;;;;;25.10;99.90;;;;;;5052770;28;20351;-74
2021/12/22 05:44:52;;;;;;;;;;;25.00;99.90;;;;;;5052593;28;19919;-71
2021/12/22 05:47:18;;;;;;;;;;;25.00;99.90;;;;;;5052796;28;19917;-74
2021/12/22 05:49:48;;;;;;;;;;;25.10;99.90;;;;;;5052586;28;20355;-74
2021/12/22 05:52:14;;;;;;;;;;;25.10;99.90;;;;;;5050423;28;20334;-74
2021/12/22 05:54:41;;;;;;;;;;;25.10;99.90;;;;;;5050596;28;19913;-74
2021/12/22 05:57:08;;;;;;;;;;;25.00;99.90;;;;;;5050532;28;19909;-74
2021/12/22 05:59:34;;;;;;;;;;;25.00;99.90;;;;;;5050326;28;19999;-73
2021/12/22 06:02:01;;;;;;;;;;;25.00;99.90;;;;;;5049024;28;20360;-74
2021/12/22 06:04:28;;;;;;;;;;;24.80;99.90;;;;;;5050075;28;19948;-74
2021/12/22 06:06:54;;;;;;;;;;;24.80;99.90;;;;;;5050340;28;19909;-74
2021/12/22 06:09:21;;;;;;;;;;;24.80;99.90;;;;;;5050180;28;19935;-74
2021/12/22 06:11:48;;;;;;;;;;;24.90;99.90;;;;;;5050194;28;19913;-74
2021/12/22 06:14:14;;;;;;;;;;;24.90;99.90;;;;;;5050236;28;19917;-72
2021/12/22 06:16:41;;;;;;;;;;;24.90;99.90;;;;;;5050179;28;19912;-72
2021/12/22 06:19:09;;;;;;;;;;;25.00;99.90;;;;;;5049927;28;19962;-74
2021/12/22 06:21:36;;;;;;;;;;;25.00;99.90;;;;;;5050172;28;20004;-72
2021/12/22 06:24:03;;;;;;;;;;;25.00;99.90;;;;;;5049882;28;19975;-74
2021/12/22 06:26:30;;;;;;;;;;;24.90;99.90;;;;;;5050292;28;19920;-73
2021/12/22 06:28:56;;;;;;;;;;;24.90;99.90;;;;;;5049712;28;19916;-73
2021/12/22 06:31:23;;;;;;;;;;;24.90;99.90;;;;;;5052021;28;20421;-73
2021/12/22 06:33:49;;;;;;;;;;;25.00;99.90;;;;;;5053987;28;19913;-73
2021/12/22 06:36:17;;;;;;;;;;;24.90;99.90;;;;;;5054123;28;19917;-73
2021/12/22 06:38:43;;;;;;;;;;;24.80;99.90;;;;;;5054070;28;19909;-74
2021/12/22 06:41:10;;;;;;;;;;;24.80;99.90;;;;;;5054042;28;20348;-74
2021/12/22 06:43:37;;;;;;;;;;;24.90;99.90;;;;;;5052936;28;19912;-73
2021/12/22 06:46:03;;;;;;;;;;;24.80;99.90;;;;;;5053672;28;20468;-73
2021/12/22 06:48:30;;;;;;;;;;;24.80;99.90;;;;;;5054015;28;20399;-74
2021/12/22 06:50:57;;;;;;;;;;;24.70;99.90;;;;;;5054061;28;19917;-70
2021/12/22 06:53:23;;;;;;;;;;;24.60;99.90;;;;;;5053776;28;19913;-74
2021/12/22 06:55:50;;;;;;;;;;;24.70;99.90;;;;;;5085757;28;20355;-75
2021/12/22 06:58:16;;;;;;;;;;;24.70;99.90;;;;;;5052874;28;19909;-74
2021/12/22 07:00:43;;;;;;;;;;;24.70;99.90;;;;;;5053601;28;19960;-74
2021/12/22 07:03:10;;;;;;;;;;;24.70;99.90;;;;;;5053664;28;20345;-73
2021/12/22 07:05:37;;;;;;;;;;;24.80;99.90;;;;;;5053626;28;19920;-74
2021/12/22 07:08:03;;;;;;;;;;;24.70;99.90;;;;;;5053607;28;20214;-73
2021/12/22 07:10:30;;;;;;;;;;;24.60;99.90;;;;;;5052929;28;19921;-73
2021/12/22 07:12:57;;;;;;;;;;;24.70;99.90;;;;;;5053024;28;19913;-74
2021/12/22 07:15:23;;;;;;;;;;;24.70;99.90;;;;;;5053269;28;19992;-74
2021/12/22 07:17:50;;;;;;;;;;;24.60;99.90;;;;;;5053216;28;19916;-74
2021/12/22 07:20:17;;;;;;;;;;;24.50;99.90;;;;;;5053318;28;20295;-74
2021/12/22 07:22:44;;;;;;;;;;;24.40;99.90;;;;;;5053588;28;19909;-73
2021/12/22 07:25:12;;;;;;;;;;;24.40;99.90;;;;;;5053440;28;20003;-73
2021/12/22 07:27:39;;;;;;;;;;;24.50;99.90;;;;;;5052968;28;19909;-71
2021/12/22 07:30:07;;;;;;;;;;;24.40;99.90;;;;;;5052927;28;19963;-72
2021/12/22 07:32:33;;;;;;;;;;;24.30;99.90;;;;;;5052864;28;19995;-73
2021/12/22 07:35:26;;;;;;;;;;;24.30;99.90;;;;;;5053141;28;19912;-73
2021/12/22 07:38:07;;;;;;;;;;;24.30;99.90;;;;;;5044294;28;19913;-74
2021/12/22 07:40:34;;;;;;;;;;;24.30;99.90;;;;;;5052961;28;19920;-70
2021/12/22 07:43:01;;;;;;;;;;;24.30;99.90;;;;;;5051631;28;19959;-70
2021/12/22 07:45:27;;;;;;;;;;;24.30;99.90;;;;;;5053317;28;20302;-71
2021/12/22 07:47:54;;;;;;;;;;;24.30;99.90;;;;;;5052260;28;20370;-70
2021/12/22 07:50:21;;;;;;;;;;;24.40;99.90;;;;;;5052188;28;20369;-71
2021/12/22 07:52:47;;;;;;;;;;;24.30;99.90;;;;;;5052739;28;19908;-74
2021/12/22 07:55:14;;;;;;;;;;;24.30;99.90;;;;;;5052902;28;19920;-73
2021/12/22 07:57:41;;;;;;;;;;;24.30;99.90;;;;;;5052265;28;20286;-75
2021/12/22 08:00:07;;;;;;;;;;;24.20;99.90;;;;;;5052359;28;19952;-72
2021/12/22 08:02:36;;;;;;;;;;;24.20;99.90;;;;;;5052080;28;19909;-74
2021/12/22 08:05:04;;;;;;;;;;;24.10;99.90;;;;;;5052908;28;20275;-73
2021/12/22 08:07:30;;;;;;;;;;;24.10;99.90;;;;;;5054309;28;19909;-74
2021/12/22 08:09:57;;;;;;;;;;;24.10;99.90;;;;;;5054279;28;19920;-74
2021/12/22 08:12:24;;;;;;;;;;;24.10;99.90;;;;;;5054589;28;19909;-73
2021/12/22 08:14:50;;;;;;;;;;;24.10;99.90;;;;;;5054269;28;19909;-73
2021/12/22 08:17:17;;;;;;;;;;;24.10;99.90;;;;;;5054588;28;19938;-74
2021/12/22 08:19:45;;;;;;;;;;;24.10;99.90;;;;;;5054765;28;19916;-74
2021/12/22 08:22:12;;;;;;;;;;;24.10;99.90;;;;;;5054321;28;20308;-75
2021/12/22 08:24:38;;;;;;;;;;;24.20;99.90;;;;;;5054537;28;19924;-75
2021/12/22 08:27:05;;;;;;;;;;;24.20;99.90;;;;;;5054486;28;20245;-75
2021/12/22 08:29:32;;;;;;;;;;;24.10;99.90;;;;;;5054258;28;19916;-75
2021/12/22 08:31:58;;;;;;;;;;;24.10;99.90;;;;;;5053882;28;20375;-75
2021/12/22 08:34:27;;;;;;;;;;;24.10;99.90;;;;;;5054286;28;20015;-74
2021/12/22 08:39:40;;;;;;;;;;;23.90;99.90;;;;;;5056469;28;19970;-73
2021/12/22 08:42:07;;;;;;;;;;;23.90;99.90;;;;;;5056331;28;19909;-74
2021/12/22 08:44:34;;;;;;;;;;;23.90;99.90;;;;;;5054349;28;19916;-74
2021/12/22 08:47:01;;;;;;;;;;;23.80;99.90;;;;;;5054172;28;19909;-70
2021/12/22 08:49:28;;;;;;;;;;;23.80;99.90;;;;;;5054185;28;19916;-71
2021/12/22 08:51:54;;;;;;;;;;;23.70;99.90;;;;;;5053789;28;19940;-71
2021/12/22 08:54:21;;;;;;;;;;;23.70;99.90;;;;;;5054103;28;19955;-73
2021/12/22 08:56:48;;;;;;;;;;;23.70;99.90;;;;;;5053719;28;20003;-71
2021/12/22 08:59:15;;;;;;;;;;;23.70;99.90;;;;;;5053596;28;19916;-74
2021/12/22 09:01:42;;;;;;;;;;;23.70;99.90;;;;;;5053668;28;20376;-72
2021/12/22 09:04:10;;;;;;;;;;;23.70;99.90;;;;;;5053508;28;19952;-71
2021/12/22 09:06:36;;;;;;;;;;;23.60;99.90;;;;;;5053936;28;20396;-73
2021/12/22 09:09:04;;;;;;;;;;;23.60;99.90;;;;;;5053478;28;19952;-74
2021/12/22 09:11:31;;;;;;;;;;;23.60;99.90;;;;;;5053674;28;19908;-74
2021/12/22 09:13:58;;;;;;;;;;;23.60;99.90;;;;;;5053282;28;19916;-70
2021/12/22 09:16:25;;;;;;;;;;;23.50;99.90;;;;;;5053916;28;19963;-72
2021/12/22 09:18:51;;;;;;;;;;;23.50;99.90;;;;;;5053432;28;19913;-70
2021/12/22 09:21:18;;;;;;;;;;;23.40;99.90;;;;;;5053759;28;19941;-74
2021/12/22 09:23:45;;;;;;;;;;;23.20;99.90;;;;;;5054108;28;19909;-71
2021/12/22 09:26:11;;;;;;;;;;;23.10;99.90;;;;;;5053350;28;19951;-71
2021/12/22 09:28:38;;;;;;;;;;;23.10;99.90;;;;;;5053090;28;19916;-73
2021/12/22 09:31:06;;;;;;;;;;;23.00;99.90;;;;;;5053023;28;19923;-73
2021/12/22 09:33:33;;;;;;;;;;;23.00;99.90;;;;;;5052960;28;19913;-71
2021/12/22 09:36:01;;;;;;;;;;;23.00;99.90;;;;;;5052975;28;19915;-71
2021/12/22 09:38:27;;;;;;;;;;;23.00;99.90;;;;;;5053125;28;19909;-74
2021/12/22 09:40:54;;;;;;;;;;;23.10;99.90;;;;;;5052877;28;19991;-72
2021/12/22 09:43:21;;;;;;;;;;;23.10;99.90;;;;;;5053269;28;19954;-71
2021/12/22 09:45:53;;;;;;;;;;;23.20;99.90;;;;;;5053100;28;19909;-71
2021/12/22 09:48:31;;;;;;;;;;;23.20;99.90;;;;;;5053147;28;19916;-69
2021/12/22 09:53:29;;;;;;;;;;;23.20;99.90;;;;;;5052984;28;19940;-70
2021/12/22 09:55:58;;;;;;;;;;;23.20;99.90;;;;;;5052816;28;20352;-73
2021/12/22 09:58:25;;;;;;;;;;;23.20;99.90;;;;;;5052710;28;19963;-71
2021/12/22 10:00:52;;;;;;;;;;;23.30;99.90;;;;;;5052896;28;19912;-73
2021/12/22 10:03:20;;;;;;;;;;;23.40;99.90;;;;;;5052719;28;19954;-72
2021/12/22 10:05:47;;;;;;;;;;;23.40;99.90;;;;;;5051645;28;20371;-71
2021/12/22 10:08:18;;;;;;;;;;;23.50;99.90;;;;;;5052681;28;19916;-70
2021/12/22 10:10:47;;;;;;;;;;;23.50;99.90;;;;;;5052703;28;20431;-71
2021/12/22 10:13:21;;;;;;;;;;;23.50;99.90;;;;;;5052910;28;19977;-73
2021/12/22 10:15:48;;;;;;;;;;;23.50;99.90;;;;;;5052536;28;19909;-70
2021/12/22 10:18:19;;;;;;;;;;;23.50;99.90;;;;;;5053168;28;20054;-70
2021/12/22 10:20:48;;;;;;;;;;;23.50;99.90;;;;;;5053438;28;19909;-70
2021/12/22 10:23:21;;;;;;;;;;;23.50;99.90;;;;;;5053166;28;19915;-71
2021/12/22 10:25:51;;;;;;;;;;;23.50;99.90;;;;;;5053065;28;20020;-70
2021/12/22 10:28:19;;;;;;;;;;;23.50;99.90;;;;;;5053157;28;19913;-70
2021/12/22 10:30:47;;;;;;;;;;;23.50;99.90;;;;;;5052829;28;20356;-72
2021/12/22 10:33:14;;;;;;;;;;;23.50;99.90;;;;;;5051757;28;20367;-70
2021/12/22 10:35:42;;;;;;;;;;;23.50;99.90;;;;;;5052395;28;19909;-69
2021/12/22 10:38:10;;;;;;;;;;;23.50;99.90;;;;;;5052453;28;20347;-69
2021/12/22 10:40:41;;;;;;;;;;;23.50;99.90;;;;;;5052318;28;19913;-70
2021/12/22 10:43:09;;;;;;;;;;;23.50;99.90;;;;;;5052001;28;19909;-73
2021/12/22 10:45:36;;;;;;;;;;;23.50;99.90;;;;;;5052217;28;19912;-70
2021/12/22 10:50:54;;;;;;;;;;;23.40;99.90;;;;;;5052186;28;20401;-74
2021/12/22 10:53:20;;;;;;;;;;;23.30;99.90;;;;;;5052226;28;19916;-74
2021/12/22 10:55:52;;;;;;;;;;;23.30;99.90;;;;;;5051776;28;19920;-71
2021/12/22 10:58:21;;;;;;;;;;;23.30;99.90;;;;;;5051896;28;19912;-72
2021/12/22 11:01:07;;;;;;;;;;;23.40;99.90;;;;;;5052113;28;19909;-71
2021/12/22 11:03:38;;;;;;;;;;;23.40;99.90;;;;;;5051476;28;19999;-71
2021/12/22 11:06:10;;;;;;;;;;;23.40;99.90;;;;;;5051595;28;19909;-70
2021/12/22 11:08:36;;;;;;;;;;;23.40;99.90;;;;;;5052001;28;19909;-71
2021/12/22 11:11:14;;;;;;;;;;;23.40;99.90;;;;;;5051603;28;19921;-72
2021/12/22 11:13:41;;;;;;;;;;;23.40;99.90;;;;;;5050476;28;19916;-72
2021/12/22 11:16:14;;;;;;;;;;;23.40;99.90;;;;;;5051742;28;19909;-72
2021/12/22 11:18:41;;;;;;;;;;;23.40;99.90;;;;;;5053706;28;20404;-71
2021/12/22 11:21:16;;;;;;;;;;;23.40;99.90;;;;;;5055397;28;19909;-70
2021/12/22 11:23:44;;;;;;;;;;;23.50;99.90;;;;;;5055562;28;19909;-72
2021/12/22 11:26:13;;;;;;;;;;;23.50;99.90;;;;;;5055163;28;20182;-74
2021/12/22 11:28:41;;;;;;;;;;;23.50;99.90;;;;;;5055254;28;19970;-73
2021/12/22 11:31:08;;;;;;;;;;;23.50;99.90;;;;;;5055215;28;20284;-73
2021/12/22 11:33:36;;;;;;;;;;;23.50;99.90;;;;;;5054930;28;19945;-73
2021/12/22 11:36:03;;;;;;;;;;;23.50;99.90;;;;;;5055146;28;19944;-71
2021/12/22 11:38:32;;;;;;;;;;;23.50;99.90;;;;;;5055103;28;19909;-71
2021/12/22 11:43:54;;;;;;;;;;;23.50;99.90;;;;;;5045485;28;19909;-72
2021/12/22 11:46:26;;;;;;;;;;;23.50;99.90;;;;;;5055168;28;19959;-72
2021/12/22 11:48:52;;;;;;;;;;;23.50;99.90;;;;;;5055448;28;19931;-71
2021/12/22 11:51:23;;;;;;;;;;;23.50;99.90;;;;;;5054986;28;19917;-71
2021/12/22 11:53:54;;;;;;;;;;;23.50;99.90;;;;;;5054586;28;19909;-70
2021/12/22 11:56:39;;;;;;;;;;;23.50;99.90;;;;;;5055278;28;20307;-72
2021/12/22 11:59:06;;;;;;;;;;;23.60;99.90;;;;;;5054788;28;19909;-73
2021/12/22 12:01:33;;;;;;;;;;;23.60;99.90;;;;;;5054989;28;19909;-74
2021/12/22 12:04:13;;;;;;;;;;;23.60;99.90;;;;;;5054632;28;19912;-71
2021/12/22 12:06:50;;;;;;;;;;;23.50;99.90;;;;;;5054665;28;19909;-72
2021/12/22 12:09:21;;;;;;;;;;;23.50;99.90;;;;;;5054478;28;19917;-72
2021/12/22 12:11:56;;;;;;;;;;;23.50;99.90;;;;;;5054662;28;19916;-71
2021/12/22 12:15:00;;;;;;;;;;;23.50;99.90;;;;;;5054449;28;20373;-71
2021/12/22 12:23:20;;;;;;;;;;;23.50;99.90;;;;;;5054698;28;19920;-71
2021/12/22 12:25:46;;;;;;;;;;;23.50;99.90;;;;;;5054275;28;19909;-71
2021/12/22 12:28:17;;;;;;;;;;;23.40;99.90;;;;;;5054045;28;19908;-71
2021/12/22 12:30:52;;;;;;;;;;;23.40;99.90;;;;;;5054174;28;20336;-73
2021/12/22 12:33:25;;;;;;;;;;;23.40;99.90;;;;;;5054307;28;20007;-71
2021/12/22 12:35:56;;;;;;;;;;;23.40;99.90;;;;;;5054030;28;19909;-72
2021/12/22 12:38:30;;;;;;;;;;;23.40;99.90;;;;;;5054164;28;19913;-71
2021/12/22 12:41:11;;;;;;;;;;;23.40;99.90;;;;;;5054137;28;19996;-70
2021/12/22 12:43:42;;;;;;;;;;;23.50;99.90;;;;;;5054065;28;19912;-75
2021/12/22 12:46:21;;;;;;;;;;;23.50;99.90;;;;;;5053842;28;19988;-70
2021/12/22 12:48:52;;;;;;;;;;;23.50;99.90;;;;;;5053970;28;20386;-73
2021/12/22 12:51:20;;;;;;;;;;;23.50;99.90;;;;;;5053841;28;19970;-71
2021/12/22 12:53:48;;;;;;;;;;;23.50;99.90;;;;;;5053499;28;19978;-73
2021/12/22 12:56:15;;;;;;;;;;;23.50;99.90;;;;;;5053882;28;19916;-73
2021/12/22 12:58:54;;;;;;;;;;;23.50;99.90;;;;;;5053624;28;20405;-74
2021/12/22 13:01:39;;;;;;;;;;;23.50;99.90;;;;;;5053812;28;19912;-70
2021/12/22 13:04:24;;;;;;;;;;;23.50;99.90;;;;;;5053520;28;20351;-72
2021/12/22 13:06:52;;;;;;;;;;;23.50;99.90;;;;;;5053619;28;20261;-71
2021/12/22 13:09:26;;;;;;;;;;;23.50;99.90;;;;;;5053325;28;19923;-70
2021/12/22 13:17:21;;;;;;;;;;;23.40;99.90;;;;;;5053803;28;19916;-74
2021/12/22 13:19:52;;;;;;;;;;;23.50;99.90;;;;;;5053347;28;19909;-71
2021/12/22 13:22:29;;;;;;;;;;;23.50;99.90;;;;;;5053327;28;19908;-71
2021/12/22 13:25:06;;;;;;;;;;;23.50;99.90;;;;;;5053325;28;20287;-71
2021/12/22 13:27:33;;;;;;;;;;;23.40;99.90;;;;;;5053028;28;19999;-71
2021/12/22 13:30:16;;;;;;;;;;;23.50;99.90;;;;;;5052853;28;19912;-71
2021/12/22 13:33:01;;;;;;;;;;;23.50;99.90;;;;;;5053385;28;20261;-71
2021/12/22 13:35:46;;;;;;;;;;;23.60;99.90;;;;;;5053345;28;19909;-74
2021/12/22 13:38:23;;;;;;;;;;;23.50;99.90;;;;;;5053184;28;19909;-72
2021/12/22 13:40:55;;;;;;;;;;;23.50;99.90;;;;;;5052310;28;20355;-72
2021/12/22 13:43:24;;;;;;;;;;;23.50;99.90;;;;;;5051570;28;20318;-71
2021/12/22 13:45:52;;;;;;;;;;;23.50;99.90;;;;;;5052669;28;20002;-71
2021/12/22 13:48:23;;;;;;;;;;;23.40;99.90;;;;;;5052778;28;19915;-73
2021/12/22 13:50:50;;;;;;;;;;;23.40;99.90;;;;;;5052844;28;19920;-72
2021/12/22 13:53:18;;;;;;;;;;;23.40;99.90;;;;;;5052858;28;19909;-70
2021/12/22 13:55:45;;;;;;;;;;;23.40;99.90;;;;;;5052945;28;20252;-71
2021/12/22 13:58:30;;;;;;;;;;;23.50;99.90;;;;;;5052460;28;19913;-70
2021/12/22 14:01:32;;;;;;;;;;;23.40;99.90;;;;;;5052537;28;19955;-71
2021/12/22 14:04:01;;;;;;;;;;;23.10;99.90;;;;;;5030305;28;20271;-69
2021/12/22 14:06:28;;;;;;;;;;;22.90;99.90;;;;;;5048521;28;20362;-72
2021/12/22 14:09:00;;;;;;;;;;;22.80;99.90;;;;;;5052179;28;19909;-73
2021/12/22 14:11:38;;;;;;;;;;;22.80;99.90;;;;;;5051810;28;20346;-74
2021/12/22 14:14:20;;;;;;;;;;;22.80;99.90;;;;;;5052229;28;19913;-73
2021/12/22 14:16:50;;;;;;;;;;;22.70;99.90;;;;;;5052618;28;19909;-71
2021/12/22 14:19:18;;;;;;;;;;;22.70;99.90;;;;;;5052653;28;20019;-71
2021/12/22 14:21:45;;;;;;;;;;;22.70;99.90;;;;;;5052436;28;19932;-71
2021/12/22 14:24:14;;;;;;;;;;;22.70;99.90;;;;;;5052402;28;20395;-70
2021/12/22 14:26:48;;;;;;;;;;;22.60;99.90;;;;;;5052411;28;19962;-71
2021/12/22 14:29:15;;;;;;;;;;;22.50;99.90;;;;;;5052188;28;19909;-71
2021/12/22 14:31:58;;;;;;;;;;;22.50;99.90;;;;;;5052292;28;19925;-72
2021/12/22 14:34:25;;;;;;;;;;;22.40;99.90;;;;;;5052051;28;19909;-71
2021/12/22 14:36:52;;;;;;;;;;;22.40;99.90;;;;;;5052506;28;19919;-72
2021/12/22 14:39:19;;;;;;;;;;;22.40;99.90;;;;;;5052491;28;19913;-71
2021/12/22 14:41:47;;;;;;;;;;;22.30;99.90;;;;;;5051958;28;19944;-72
2021/12/22 14:44:19;;;;;;;;;;;22.20;99.90;;;;;;5052173;28;19912;-71
2021/12/22 14:46:46;;;;;;;;;;;22.20;99.90;;;;;;5052194;28;19913;-72
2021/12/22 14:49:17;;;;;;;;;;;22.20;99.90;;;;;;5052120;28;20348;-71
2021/12/22 14:51:45;;;;;;;;;;;22.20;99.90;;;;;;5053414;28;19924;-73
2021/12/22 14:54:12;;;;;;;;;;;22.20;99.90;;;;;;5056002;28;19983;-75
2021/12/22 14:56:43;;;;;;;;;;;22.20;99.90;;;;;;5055921;28;20016;-74
2021/12/22 14:59:10;;;;;;;;;;;22.20;99.90;;;;;;5055993;28;19915;-71
2021/12/22 15:01:37;;;;;;;;;;;22.30;99.90;;;;;;5055776;28;19995;-72
2021/12/22 15:04:04;;;;;;;;;;;22.30;99.90;;;;;;5055908;28;19962;-71
2021/12/22 15:06:31;;;;;;;;;;;22.30;99.90;;;;;;5055870;28;20352;-73